Time;durP1;ratioP1;P1;durP2;ratioP2;P2;SDS_P1;SDS_P2;PMS_P1;PMS_P2;Temp;Humidity;BMP_temperature;BMP_pressure;BME280_temperature;BME280_humidity;BME280_pressure;Samples;Min_cycle;Max_cycle;Signal;HPM_P1;HPM_P2
2023/08/24 00:00:14;;;;;;;33.00;26.70;;;;;;;-128.00;-1.00;-1.00;105556;1252;1003944;-80
2023/08/24 00:03:02;;;;;;;33.40;23.30;;;;;;;-128.00;-1.00;-1.00;105537;1253;1059531;-80
2023/08/24 00:05:29;;;;;;;;;;;;;;;-128.00;-1.00;-1.00;105526;1253;1058558;-81
2023/08/24 00:07:56;;;;;;;29.10;23.60;;;;;;;-128.00;-1.00;-1.00;105551;1253;1004207;-80
2023/08/24 00:10:23;;;;;;;31.40;24.20;;;;;;;-128.00;-1.00;-1.00;105575;1253;1004336;-80
2023/08/24 00:12:49;;;;;;;32.90;24.30;;;;;;;-128.00;-1.00;-1.00;105569;1252;1003927;-80
2023/08/24 00:15:16;;;;;;;39.60;25.30;;;;;;;-128.00;-1.00;-1.00;105587;1254;1004506;-80
2023/08/24 00:17:42;;;;;;;36.10;27.00;;;;;;;-128.00;-1.00;-1.00;105555;1253;1004157;-80
2023/08/24 00:20:10;;;;;;;28.90;24.20;;;;;;;-128.00;-1.00;-1.00;105523;1252;1004201;-80
2023/08/24 00:22:38;;;;;;;32.40;22.70;;;;;;;-128.00;-1.00;-1.00;105568;1253;1004861;-80
2023/08/24 00:25:06;;;;;;;31.80;25.40;;;;;;;-128.00;-1.00;-1.00;105627;1253;1005447;-80
2023/08/24 00:27:32;;;;;;;28.70;21.70;;;;;;;-128.00;-1.00;-1.00;105556;1253;1003843;-80
2023/08/24 00:29:59;;;;;;;29.70;23.70;;;;;;;-128.00;-1.00;-1.00;105533;1252;1004453;-80
2023/08/24 00:32:25;;;;;;;29.80;23.10;;;;;;;-128.00;-1.00;-1.00;105551;1254;1004644;-80
2023/08/24 00:34:52;;;;;;;30.10;22.80;;;;;;;-128.00;-1.00;-1.00;105285;1254;1005171;-80
2023/08/24 00:37:18;;;;;;;29.60;24.00;;;;;;;-128.00;-1.00;-1.00;105553;1252;1004595;-81
2023/08/24 00:39:45;;;;;;;28.20;23.40;;;;;;;-128.00;-1.00;-1.00;105560;1253;1005749;-80
2023/08/24 00:42:14;;;;;;;29.40;21.90;;;;;;;-128.00;-1.00;-1.00;105517;1253;1004521;-80
2023/08/24 00:44:41;;;;;;;29.00;23.90;;;;;;;-128.00;-1.00;-1.00;105576;1254;1045165;-80
2023/08/24 00:47:08;;;;;;;33.30;24.70;;;;;;;-128.00;-1.00;-1.00;105587;1253;1003565;-80
2023/08/24 00:49:34;;;;;;;29.20;22.70;;;;;;;-128.00;-1.00;-1.00;105432;1252;1004205;-81
2023/08/24 00:52:01;;;;;;;27.00;22.40;;;;;;;-128.00;-1.00;-1.00;105547;1253;1004283;-79
2023/08/24 00:54:27;;;;;;;25.50;22.00;;;;;;;-128.00;-1.00;-1.00;105537;1253;1004388;-80
2023/08/24 00:56:54;;;;;;;27.60;21.10;;;;;;;-128.00;-1.00;-1.00;105509;1256;1005067;-80
2023/08/24 00:59:20;;;;;;;26.60;21.80;;;;;;;-128.00;-1.00;-1.00;105417;1254;1004743;-80
2023/08/24 01:01:47;;;;;;;26.90;22.70;;;;;;;-128.00;-1.00;-1.00;105525;1254;1004136;-80
2023/08/24 01:04:13;;;;;;;26.60;21.20;;;;;;;-128.00;-1.00;-1.00;105552;1254;1004162;-80
2023/08/24 01:06:40;;;;;;;31.50;21.40;;;;;;;-128.00;-1.00;-1.00;105551;1253;1004860;-80
2023/08/24 01:09:06;;;;;;;30.40;23.10;;;;;;;-128.00;-1.00;-1.00;105512;1252;1003913;-80
2023/08/24 01:11:50;;;;;;;28.60;23.80;;;;;;;-128.00;-1.00;-1.00;105367;1252;1004022;-80
2023/08/24 01:14:30;;;;;;;27.00;22.50;;;;;;;-128.00;-1.00;-1.00;105523;1252;1063462;-80
2023/08/24 01:16:58;;;;;;;27.50;22.00;;;;;;;-128.00;-1.00;-1.00;105404;1253;1057619;-80
2023/08/24 01:19:41;;;;;;;27.00;21.70;;;;;;;-128.00;-1.00;-1.00;105499;1253;1005587;-79
2023/08/24 01:22:14;;;;;;;26.80;22.50;;;;;;;-128.00;-1.00;-1.00;105378;1252;1046001;-80
2023/08/24 01:24:45;;;;;;;31.20;23.50;;;;;;;-128.00;-1.00;-1.00;105583;1252;1047653;-80
2023/08/24 01:27:11;;;;;;;25.20;21.10;;;;;;;-128.00;-1.00;-1.00;105600;1254;1062255;-80
2023/08/24 01:29:40;;;;;;;22.90;20.30;;;;;;;-128.00;-1.00;-1.00;105308;1253;1004730;-79
2023/08/24 01:32:10;;;;;;;31.20;22.20;;;;;;;-128.00;-1.00;-1.00;105413;1258;1058550;-80
2023/08/24 01:34:38;;;;;;;28.60;22.00;;;;;;;-128.00;-1.00;-1.00;105620;1254;1046631;-80
2023/08/24 01:37:06;;;;;;;28.40;21.40;;;;;;;-128.00;-1.00;-1.00;105534;1253;1004303;-80
2023/08/24 01:39:51;;;;;;;25.70;21.00;;;;;;;-128.00;-1.00;-1.00;105535;1253;1003862;-80
2023/08/24 01:42:20;;;;;;;26.90;20.90;;;;;;;-128.00;-1.00;-1.00;105544;1253;1056802;-80
2023/08/24 01:44:51;;;;;;;24.90;21.20;;;;;;;-128.00;-1.00;-1.00;105407;1252;1059820;-80
2023/08/24 01:47:18;;;;;;;23.60;19.00;;;;;;;-128.00;-1.00;-1.00;105572;1252;1045712;-80
2023/08/24 01:49:44;;;;;;;23.30;19.90;;;;;;;-128.00;-1.00;-1.00;105723;1252;1004591;-80
2023/08/24 01:52:11;;;;;;;24.90;21.20;;;;;;;-128.00;-1.00;-1.00;105690;1254;1004009;-80
2023/08/24 01:54:37;;;;;;;25.40;21.00;;;;;;;-128.00;-1.00;-1.00;105519;1254;1004649;-80
2023/08/24 01:57:05;;;;;;;25.40;20.90;;;;;;;-128.00;-1.00;-1.00;105529;1254;1004509;-80
2023/08/24 01:59:32;;;;;;;27.20;22.20;;;;;;;-128.00;-1.00;-1.00;105524;1252;1005292;-80
2023/08/24 02:01:58;;;;;;;25.40;21.70;;;;;;;-128.00;-1.00;-1.00;105559;1253;1003932;-80
2023/08/24 02:04:25;;;;;;;28.70;23.80;;;;;;;-128.00;-1.00;-1.00;105548;1254;1005049;-80
2023/08/24 02:06:51;;;;;;;26.80;22.40;;;;;;;-128.00;-1.00;-1.00;105540;1253;1004773;-80
2023/08/24 02:09:18;;;;;;;27.00;22.60;;;;;;;-128.00;-1.00;-1.00;105497;1256;1003763;-80
2023/08/24 02:11:44;;;;;;;26.60;21.60;;;;;;;-128.00;-1.00;-1.00;105587;1253;1004599;-80
2023/08/24 02:14:10;;;;;;;24.80;20.70;;;;;;;-128.00;-1.00;-1.00;105711;1254;1003427;-80
2023/08/24 02:16:37;;;;;;;24.40;20.00;;;;;;;-128.00;-1.00;-1.00;105529;1252;1004391;-80
2023/08/24 02:19:04;;;;;;;21.90;18.90;;;;;;;-128.00;-1.00;-1.00;105530;1253;1005065;-80
2023/08/24 02:21:30;;;;;;;22.40;18.60;;;;;;;-128.00;-1.00;-1.00;105531;1254;1004509;-80
2023/08/24 02:23:57;;;;;;;26.40;21.50;;;;;;;-128.00;-1.00;-1.00;105529;1252;1004145;-80
2023/08/24 02:26:23;;;;;;;26.20;21.30;;;;;;;-128.00;-1.00;-1.00;105523;1253;1004646;-80
2023/08/24 02:28:50;;;;;;;21.70;19.40;;;;;;;-128.00;-1.00;-1.00;105546;1253;1003766;-80
2023/08/24 02:31:16;;;;;;;29.40;19.30;;;;;;;-128.00;-1.00;-1.00;105556;1253;1003639;-80
2023/08/24 02:33:43;;;;;;;26.20;18.20;;;;;;;-128.00;-1.00;-1.00;105556;1252;1004705;-79
2023/08/24 02:36:09;;;;;;;27.50;18.30;;;;;;;-128.00;-1.00;-1.00;105530;1254;1004796;-80
2023/08/24 02:38:36;;;;;;;31.00;20.00;;;;;;;-128.00;-1.00;-1.00;105545;1254;1005052;-80
2023/08/24 02:41:03;;;;;;;25.30;20.00;;;;;;;-128.00;-1.00;-1.00;105562;1254;1004826;-80
2023/08/24 02:43:30;;;;;;;27.60;18.70;;;;;;;-128.00;-1.00;-1.00;105571;1254;1003664;-80
2023/08/24 02:46:01;;;;;;;24.40;19.20;;;;;;;-128.00;-1.00;-1.00;105545;1253;1004166;-80
2023/08/24 02:48:27;;;;;;;23.00;19.90;;;;;;;-128.00;-1.00;-1.00;105485;1253;1047336;-80
2023/08/24 02:50:54;;;;;;;24.90;20.60;;;;;;;-128.00;-1.00;-1.00;105533;1253;1004298;-79
2023/08/24 02:53:20;;;;;;;22.00;18.80;;;;;;;-128.00;-1.00;-1.00;105559;1254;1004533;-80
2023/08/24 02:55:47;;;;;;;21.40;18.60;;;;;;;-128.00;-1.00;-1.00;105511;1253;1004521;-80
2023/08/24 02:58:14;;;;;;;23.40;20.70;;;;;;;-128.00;-1.00;-1.00;105657;1254;1003921;-80
2023/08/24 03:00:40;;;;;;;24.00;17.80;;;;;;;-128.00;-1.00;-1.00;105677;1254;1004060;-80
2023/08/24 03:03:07;;;;;;;25.30;19.50;;;;;;;-128.00;-1.00;-1.00;105591;1253;1004206;-80
2023/08/24 03:05:33;;;;;;;26.40;21.20;;;;;;;-128.00;-1.00;-1.00;105551;1254;1004697;-80
2023/08/24 03:08:00;;;;;;;22.00;18.80;;;;;;;-128.00;-1.00;-1.00;105537;1254;1004024;-80
2023/08/24 03:10:26;;;;;;;27.10;20.10;;;;;;;-128.00;-1.00;-1.00;105544;1253;1004115;-81
2023/08/24 03:12:52;;;;;;;21.40;19.00;;;;;;;-128.00;-1.00;-1.00;105550;1252;1004393;-80
2023/08/24 03:15:21;;;;;;;25.80;18.70;;;;;;;-128.00;-1.00;-1.00;105576;1253;1004239;-80
2023/08/24 03:17:47;;;;;;;20.60;18.30;;;;;;;-128.00;-1.00;-1.00;105671;1252;1004248;-80
2023/08/24 03:20:14;;;;;;;21.60;16.90;;;;;;;-128.00;-1.00;-1.00;105654;1253;1003454;-80
2023/08/24 03:22:40;;;;;;;23.00;19.00;;;;;;;-128.00;-1.00;-1.00;105398;1253;1005042;-80
2023/08/24 03:25:07;;;;;;;21.10;18.90;;;;;;;-128.00;-1.00;-1.00;105530;1256;1003898;-80
2023/08/24 03:27:34;;;;;;;19.80;16.70;;;;;;;-128.00;-1.00;-1.00;105574;1254;1003463;-80
2023/08/24 03:30:01;;;;;;;21.10;18.10;;;;;;;-128.00;-1.00;-1.00;105574;1252;1004766;-80
2023/08/24 03:32:27;;;;;;;19.80;16.90;;;;;;;-128.00;-1.00;-1.00;105563;1254;1004165;-80
2023/08/24 03:34:58;;;;;;;23.20;16.80;;;;;;;-128.00;-1.00;-1.00;105557;1252;1004866;-80
2023/08/24 03:37:25;;;;;;;21.50;17.40;;;;;;;-128.00;-1.00;-1.00;105577;1254;1046833;-80
2023/08/24 03:39:51;;;;;;;20.00;16.30;;;;;;;-128.00;-1.00;-1.00;105261;1254;1004405;-80
2023/08/24 03:42:18;;;;;;;21.40;17.00;;;;;;;-128.00;-1.00;-1.00;105422;1254;1004206;-80
2023/08/24 03:44:44;;;;;;;20.00;16.80;;;;;;;-128.00;-1.00;-1.00;105429;1254;1004250;-80
2023/08/24 03:47:11;;;;;;;21.80;17.90;;;;;;;-128.00;-1.00;-1.00;105617;1254;1004671;-80
2023/08/24 03:49:37;;;;;;;23.40;17.70;;;;;;;-128.00;-1.00;-1.00;105566;1253;1004552;-79
2023/08/24 03:52:04;;;;;;;18.40;14.80;;;;;;;-128.00;-1.00;-1.00;105549;1253;1006329;-80
2023/08/24 03:54:31;;;;;;;19.60;17.50;;;;;;;-128.00;-1.00;-1.00;105686;1256;1003927;-79
2023/08/24 03:56:57;;;;;;;21.90;18.60;;;;;;;-128.00;-1.00;-1.00;105498;1257;1005104;-80
2023/08/24 03:59:23;;;;;;;25.50;17.90;;;;;;;-128.00;-1.00;-1.00;105523;1255;1003422;-79
2023/08/24 04:01:50;;;;;;;23.10;17.70;;;;;;;-128.00;-1.00;-1.00;105528;1253;1005100;-79
2023/08/24 04:04:16;;;;;;;23.30;18.20;;;;;;;-128.00;-1.00;-1.00;105544;1254;1004823;-80
2023/08/24 04:06:43;;;;;;;23.30;16.80;;;;;;;-128.00;-1.00;-1.00;105549;1254;1003883;-80
2023/08/24 04:09:10;;;;;;;21.60;17.80;;;;;;;-128.00;-1.00;-1.00;105537;1254;1004375;-80
2023/08/24 04:11:36;;;;;;;23.20;16.80;;;;;;;-128.00;-1.00;-1.00;105549;1253;1003519;-80
2023/08/24 04:14:03;;;;;;;21.70;17.60;;;;;;;-128.00;-1.00;-1.00;105551;1252;1003914;-79
2023/08/24 04:16:29;;;;;;;18.60;16.50;;;;;;;-128.00;-1.00;-1.00;105511;1252;1003784;-80
2023/08/24 04:18:56;;;;;;;18.30;15.60;;;;;;;-128.00;-1.00;-1.00;105545;1254;1004159;-80
2023/08/24 04:21:22;;;;;;;20.90;17.10;;;;;;;-128.00;-1.00;-1.00;105537;1254;1004723;-79
2023/08/24 04:23:49;;;;;;;19.20;15.00;;;;;;;-128.00;-1.00;-1.00;105538;1254;1004061;-80
2023/08/24 04:26:15;;;;;;;17.20;15.40;;;;;;;-128.00;-1.00;-1.00;105540;1254;1004451;-80
2023/08/24 04:28:43;;;;;;;18.20;16.30;;;;;;;-128.00;-1.00;-1.00;105569;1254;1004150;-80
2023/08/24 04:31:09;;;;;;;18.50;15.70;;;;;;;-128.00;-1.00;-1.00;105571;1254;1004177;-80
2023/08/24 04:33:36;;;;;;;22.90;18.10;;;;;;;-128.00;-1.00;-1.00;105371;1253;1004009;-79
2023/08/24 04:36:05;;;;;;;20.70;16.70;;;;;;;-128.00;-1.00;-1.00;105551;1254;1005142;-79
2023/08/24 04:38:32;;;;;;;19.60;15.90;;;;;;;-128.00;-1.00;-1.00;105647;1254;1047070;-80
2023/08/24 04:40:58;;;;;;;27.50;18.20;;;;;;;-128.00;-1.00;-1.00;105725;1254;1004067;-79
2023/08/24 04:43:25;;;;;;;22.20;16.90;;;;;;;-128.00;-1.00;-1.00;105729;1253;1004324;-80
2023/08/24 04:45:53;;;;;;;18.40;16.10;;;;;;;-128.00;-1.00;-1.00;105730;1253;1004263;-80
2023/08/24 04:48:24;;;;;;;23.80;17.50;;;;;;;-128.00;-1.00;-1.00;105550;1254;1004068;-80
2023/08/24 04:50:50;;;;;;;19.00;16.80;;;;;;;-128.00;-1.00;-1.00;105529;1254;1045999;-80
2023/08/24 04:53:17;;;;;;;19.50;16.80;;;;;;;-128.00;-1.00;-1.00;105549;1252;1005322;-80
2023/08/24 04:55:44;;;;;;;22.70;16.00;;;;;;;-128.00;-1.00;-1.00;105553;1252;1004256;-81
2023/08/24 04:58:11;;;;;;;27.20;17.30;;;;;;;-128.00;-1.00;-1.00;105542;1253;1004192;-80
2023/08/24 05:00:37;;;;;;;19.90;15.60;;;;;;;-128.00;-1.00;-1.00;105524;1254;1003516;-80
2023/08/24 05:03:04;;;;;;;19.20;16.50;;;;;;;-128.00;-1.00;-1.00;105540;1254;1003736;-81
2023/08/24 05:05:35;;;;;;;20.20;15.70;;;;;;;-128.00;-1.00;-1.00;105470;1253;1004686;-80
2023/08/24 05:08:02;;;;;;;19.70;16.00;;;;;;;-128.00;-1.00;-1.00;105416;1253;1061479;-80
2023/08/24 05:10:32;;;;;;;18.40;15.20;;;;;;;-128.00;-1.00;-1.00;105629;1254;1004400;-80
2023/08/24 05:12:59;;;;;;;17.40;14.70;;;;;;;-128.00;-1.00;-1.00;105623;1251;1058318;-81
2023/08/24 05:15:26;;;;;;;22.50;16.10;;;;;;;-128.00;-1.00;-1.00;105412;1251;1004434;-81
2023/08/24 05:17:56;;;;;;;19.20;16.80;;;;;;;-128.00;-1.00;-1.00;105551;1251;1004188;-80
2023/08/24 05:20:22;;;;;;;19.40;16.40;;;;;;;-128.00;-1.00;-1.00;105493;1251;1061419;-81
2023/08/24 05:22:49;;;;;;;17.80;16.00;;;;;;;-128.00;-1.00;-1.00;105543;1251;1004244;-81
2023/08/24 05:25:18;;;;;;;16.60;14.80;;;;;;;-128.00;-1.00;-1.00;105509;1253;1004443;-80
2023/08/24 05:27:45;;;;;;;16.80;14.70;;;;;;;-128.00;-1.00;-1.00;105478;1253;1046294;-80
2023/08/24 05:30:11;;;;;;;19.80;14.60;;;;;;;-128.00;-1.00;-1.00;105565;1256;1003553;-80
2023/08/24 05:32:38;;;;;;;19.20;15.60;;;;;;;-128.00;-1.00;-1.00;105522;1254;1004889;-80
2023/08/24 05:35:05;;;;;;;20.20;15.30;;;;;;;-128.00;-1.00;-1.00;105545;1254;1004602;-80
2023/08/24 05:37:32;;;;;;;14.70;13.10;;;;;;;-128.00;-1.00;-1.00;105505;1252;1003943;-80
2023/08/24 05:40:02;;;;;;;17.00;13.20;;;;;;;-128.00;-1.00;-1.00;105553;1251;1004689;-80
2023/08/24 05:42:28;;;;;;;17.60;14.10;;;;;;;-128.00;-1.00;-1.00;105559;1251;1048151;-80
2023/08/24 05:44:54;;;;;;;15.60;14.00;;;;;;;-128.00;-1.00;-1.00;105411;1251;1003942;-80
2023/08/24 05:47:21;;;;;;;17.40;14.30;;;;;;;-128.00;-1.00;-1.00;105592;1251;1003820;-80
2023/08/24 05:49:47;;;;;;;15.40;13.40;;;;;;;-128.00;-1.00;-1.00;105539;1251;1004335;-80
2023/08/24 05:52:14;;;;;;;16.10;14.50;;;;;;;-128.00;-1.00;-1.00;105540;1256;1005353;-80
2023/08/24 05:54:40;;;;;;;15.50;13.60;;;;;;;-128.00;-1.00;-1.00;105529;1254;1003982;-80
2023/08/24 05:57:07;;;;;;;16.80;14.70;;;;;;;-128.00;-1.00;-1.00;105552;1251;1003715;-80
2023/08/24 05:59:34;;;;;;;14.50;12.90;;;;;;;-128.00;-1.00;-1.00;105556;1251;1005531;-80
2023/08/24 06:02:00;;;;;;;16.00;13.90;;;;;;;-128.00;-1.00;-1.00;105543;1254;1004279;-80
2023/08/24 06:04:27;;;;;;;15.40;13.80;;;;;;;-128.00;-1.00;-1.00;105679;1254;1004651;-80
2023/08/24 06:06:53;;;;;;;16.70;14.90;;;;;;;-128.00;-1.00;-1.00;105774;1251;1005174;-80
2023/08/24 06:09:20;;;;;;;19.10;16.30;;;;;;;-128.00;-1.00;-1.00;105606;1251;1003869;-80
2023/08/24 06:11:46;;;;;;;16.70;14.60;;;;;;;-128.00;-1.00;-1.00;105529;1254;1004317;-81
2023/08/24 06:14:13;;;;;;;17.20;14.50;;;;;;;-128.00;-1.00;-1.00;105423;1254;1004709;-80
2023/08/24 06:16:39;;;;;;;14.80;13.30;;;;;;;-128.00;-1.00;-1.00;105468;1251;1003501;-80
2023/08/24 06:19:06;;;;;;;17.00;14.00;;;;;;;-128.00;-1.00;-1.00;105460;1254;1003896;-80
2023/08/24 06:21:32;;;;;;;16.00;13.40;;;;;;;-128.00;-1.00;-1.00;105442;1254;1004216;-80
2023/08/24 06:24:00;;;;;;;16.00;14.30;;;;;;;-128.00;-1.00;-1.00;105433;1253;1004425;-81
2023/08/24 06:26:27;;;;;;;14.50;11.90;;;;;;;-128.00;-1.00;-1.00;105446;1252;1004303;-81
2023/08/24 06:28:55;;;;;;;13.70;12.30;;;;;;;-128.00;-1.00;-1.00;105511;1252;1004748;-81
2023/08/24 06:31:22;;;;;;;14.70;11.80;;;;;;;-128.00;-1.00;-1.00;105593;1255;1003300;-80
2023/08/24 06:33:49;;;;;;;13.40;12.10;;;;;;;-128.00;-1.00;-1.00;105440;1252;1004233;-80
2023/08/24 06:36:15;;;;;;;12.20;11.00;;;;;;;-128.00;-1.00;-1.00;105487;1251;1004243;-79
2023/08/24 06:38:42;;;;;;;12.70;11.40;;;;;;;-128.00;-1.00;-1.00;105435;1253;1004344;-80
2023/08/24 06:41:11;;;;;;;13.60;11.20;;;;;;;-128.00;-1.00;-1.00;105414;1254;1003711;-80
2023/08/24 06:43:39;;;;;;;11.10;9.90;;;;;;;-128.00;-1.00;-1.00;105474;1254;1046771;-80
2023/08/24 06:46:08;;;;;;;12.20;11.10;;;;;;;-128.00;-1.00;-1.00;105489;1253;1004156;-80
2023/08/24 06:48:37;;;;;;;12.50;10.60;;;;;;;-128.00;-1.00;-1.00;105491;1252;1058488;-81
2023/08/24 06:51:03;;;;;;;12.50;10.30;;;;;;;-128.00;-1.00;-1.00;105533;1252;1003916;-80
2023/08/24 06:53:30;;;;;;;11.50;10.30;;;;;;;-128.00;-1.00;-1.00;105535;1254;1004117;-81
2023/08/24 06:55:56;;;;;;;12.10;9.80;;;;;;;-128.00;-1.00;-1.00;105498;1252;1004788;-80
2023/08/24 06:58:23;;;;;;;11.00;9.70;;;;;;;-128.00;-1.00;-1.00;105391;1252;1005001;-80
2023/08/24 07:00:54;;;;;;;12.10;10.40;;;;;;;-128.00;-1.00;-1.00;105530;1253;1004434;-80
2023/08/24 07:03:21;;;;;;;12.80;10.10;;;;;;;-128.00;-1.00;-1.00;105495;1253;1058451;-80
2023/08/24 07:05:47;;;;;;;13.20;10.00;;;;;;;-128.00;-1.00;-1.00;105518;1252;1004337;-80
2023/08/24 07:08:14;;;;;;;11.90;9.10;;;;;;;-128.00;-1.00;-1.00;105486;1254;1004365;-81
2023/08/24 07:10:41;;;;;;;10.50;9.50;;;;;;;-128.00;-1.00;-1.00;105535;1251;1003864;-81
2023/08/24 07:13:09;;;;;;;9.00;8.20;;;;;;;-128.00;-1.00;-1.00;105572;1253;1004047;-81
2023/08/24 07:15:35;;;;;;;10.10;9.10;;;;;;;-128.00;-1.00;-1.00;105509;1251;1003949;-81
2023/08/24 07:18:02;;;;;;;8.80;7.90;;;;;;;-128.00;-1.00;-1.00;105507;1254;1004198;-81
2023/08/24 07:20:28;;;;;;;12.70;8.60;;;;;;;-128.00;-1.00;-1.00;105529;1251;1005090;-81
2023/08/24 07:22:57;;;;;;;8.70;7.80;;;;;;;-128.00;-1.00;-1.00;105576;1251;1004554;-81
2023/08/24 07:25:23;;;;;;;12.60;7.70;;;;;;;-128.00;-1.00;-1.00;105568;1252;1004622;-81
2023/08/24 07:27:50;;;;;;;9.80;7.90;;;;;;;-128.00;-1.00;-1.00;105528;1253;1004214;-82
2023/08/24 07:30:17;;;;;;;9.80;8.80;;;;;;;-128.00;-1.00;-1.00;105463;1251;1003852;-81
2023/08/24 07:32:43;;;;;;;10.40;8.20;;;;;;;-128.00;-1.00;-1.00;105576;1252;1004551;-81
2023/08/24 07:35:10;;;;;;;9.30;8.20;;;;;;;-128.00;-1.00;-1.00;105514;1254;1004504;-81
2023/08/24 07:37:36;;;;;;;10.10;9.10;;;;;;;-128.00;-1.00;-1.00;105423;1252;1005401;-81
2023/08/24 07:40:04;;;;;;;8.80;8.00;;;;;;;-128.00;-1.00;-1.00;105535;1251;1004201;-81
2023/08/24 07:42:30;;;;;;;8.70;7.50;;;;;;;-128.00;-1.00;-1.00;105523;1253;1004589;-81
2023/08/24 07:44:57;;;;;;;8.10;7.00;;;;;;;-128.00;-1.00;-1.00;105533;1251;1004126;-81
2023/08/24 07:47:23;;;;;;;7.40;6.70;;;;;;;-128.00;-1.00;-1.00;105527;1252;1004818;-81
2023/08/24 07:49:49;;;;;;;9.20;7.30;;;;;;;-128.00;-1.00;-1.00;105631;1250;1003888;-81
2023/08/24 07:52:16;;;;;;;10.00;7.20;;;;;;;-128.00;-1.00;-1.00;105671;1251;1004470;-81
2023/08/24 07:54:44;;;;;;;12.90;8.70;;;;;;;-128.00;-1.00;-1.00;105545;1251;1004878;-81
2023/08/24 07:57:10;;;;;;;8.80;6.90;;;;;;;-128.00;-1.00;-1.00;105562;1253;1005353;-81
2023/08/24 07:59:37;;;;;;;11.60;6.80;;;;;;;-128.00;-1.00;-1.00;105518;1253;1004357;-81
2023/08/24 08:02:03;;;;;;;13.50;6.90;;;;;;;-128.00;-1.00;-1.00;105540;1251;1004587;-82
2023/08/24 08:04:30;;;;;;;12.30;9.80;;;;;;;-128.00;-1.00;-1.00;105424;1251;1003611;-82
2023/08/24 08:06:56;;;;;;;8.80;5.70;;;;;;;-128.00;-1.00;-1.00;105565;1251;1004643;-83
2023/08/24 08:09:23;;;;;;;8.80;6.10;;;;;;;-128.00;-1.00;-1.00;105615;1251;1004418;-82
2023/08/24 08:11:50;;;;;;;12.60;7.80;;;;;;;-128.00;-1.00;-1.00;105553;1253;1003969;-82
2023/08/24 08:14:16;;;;;;;7.90;6.50;;;;;;;-128.00;-1.00;-1.00;105422;1251;1004302;-82
2023/08/24 08:16:43;;;;;;;7.30;5.60;;;;;;;-128.00;-1.00;-1.00;105521;1251;1004538;-82
2023/08/24 08:19:09;;;;;;;6.00;5.20;;;;;;;-128.00;-1.00;-1.00;105542;1251;1004722;-82
2023/08/24 08:21:36;;;;;;;10.50;5.60;;;;;;;-128.00;-1.00;-1.00;105593;1251;1003602;-82
2023/08/24 08:24:03;;;;;;;9.10;5.70;;;;;;;-128.00;-1.00;-1.00;105535;1253;1004047;-82
2023/08/24 08:26:30;;;;;;;8.80;5.20;;;;;;;-128.00;-1.00;-1.00;105554;1251;1004311;-81
2023/08/24 08:28:57;;;;;;;7.60;4.80;;;;;;;-128.00;-1.00;-1.00;105482;1252;1005183;-81
2023/08/24 08:31:24;;;;;;;9.00;4.80;;;;;;;-128.00;-1.00;-1.00;105417;1251;1004466;-82
2023/08/24 08:33:50;;;;;;;6.90;4.80;;;;;;;-128.00;-1.00;-1.00;105530;1253;1004892;-82
2023/08/24 08:36:17;;;;;;;7.20;5.20;;;;;;;-128.00;-1.00;-1.00;105542;1253;1003858;-82
2023/08/24 08:38:43;;;;;;;8.50;5.00;;;;;;;-128.00;-1.00;-1.00;105588;1251;1003910;-82
2023/08/24 08:41:10;;;;;;;7.30;4.30;;;;;;;-128.00;-1.00;-1.00;105596;1251;1004047;-82
2023/08/24 08:43:37;;;;;;;6.10;3.90;;;;;;;-128.00;-1.00;-1.00;105377;1251;1004642;-82
2023/08/24 08:46:04;;;;;;;6.30;4.80;;;;;;;-128.00;-1.00;-1.00;105437;1251;1005140;-82
2023/08/24 08:48:30;;;;;;;7.40;4.70;;;;;;;-128.00;-1.00;-1.00;105411;1254;1004515;-82
2023/08/24 08:50:57;;;;;;;7.80;4.10;;;;;;;-128.00;-1.00;-1.00;105483;1251;1003513;-82
2023/08/24 08:53:24;;;;;;;4.60;4.10;;;;;;;-128.00;-1.00;-1.00;105563;1251;1004554;-82
2023/08/24 08:55:54;;;;;;;4.00;3.60;;;;;;;-128.00;-1.00;-1.00;105571;1251;1004006;-82
2023/08/24 08:58:21;;;;;;;4.70;3.90;;;;;;;-128.00;-1.00;-1.00;105581;1251;1047770;-82
2023/08/24 09:00:48;;;;;;;4.90;3.80;;;;;;;-128.00;-1.00;-1.00;105605;1251;1004304;-82
2023/08/24 09:03:17;;;;;;;9.50;3.80;;;;;;;-128.00;-1.00;-1.00;105544;1251;1004727;-82
2023/08/24 09:05:46;;;;;;;6.00;3.50;;;;;;;-128.00;-1.00;-1.00;105609;1251;1058794;-82
2023/08/24 09:08:13;;;;;;;4.10;2.70;;;;;;;-128.00;-1.00;-1.00;105436;1252;1044273;-82
2023/08/24 09:10:40;;;;;;;6.40;3.00;;;;;;;-128.00;-1.00;-1.00;105572;1252;1004005;-82
2023/08/24 09:13:06;;;;;;;5.50;3.30;;;;;;;-128.00;-1.00;-1.00;105514;1253;1004929;-82
2023/08/24 09:15:36;;;;;;;4.50;2.50;;;;;;;-128.00;-1.00;-1.00;105434;1253;1004401;-82
2023/08/24 09:18:03;;;;;;;4.00;2.40;;;;;;;-128.00;-1.00;-1.00;105565;1251;1058890;-82
2023/08/24 09:20:30;;;;;;;5.50;2.70;;;;;;;-128.00;-1.00;-1.00;105433;1251;1003726;-82
2023/08/24 09:22:59;;;;;;;6.80;2.80;;;;;;;-128.00;-1.00;-1.00;105580;1251;1004360;-82
2023/08/24 09:25:26;;;;;;;8.50;2.60;;;;;;;-128.00;-1.00;-1.00;105375;1254;1060973;-82
2023/08/24 09:27:59;;;;;;;4.60;2.60;;;;;;;-128.00;-1.00;-1.00;105399;1253;1004459;-82
2023/08/24 09:30:32;;;;;;;5.30;2.40;;;;;;;-128.00;-1.00;-1.00;105383;1253;1059976;-82
2023/08/24 09:33:03;;;;;;;3.10;1.70;;;;;;;-128.00;-1.00;-1.00;105455;1251;1046061;-82
2023/08/24 09:35:37;;;;;;;3.30;1.90;;;;;;;-128.00;-1.00;-1.00;105546;1251;1047003;-82
2023/08/24 09:38:18;;;;;;;2.40;1.60;;;;;;;-128.00;-1.00;-1.00;105520;1252;1061706;-82
2023/08/24 09:40:51;;;;;;;4.60;2.70;;;;;;;-128.00;-1.00;-1.00;105547;1253;1057368;-82
2023/08/24 09:43:18;;;;;;;3.70;1.80;;;;;;;-128.00;-1.00;-1.00;105510;1251;1058854;-82
2023/08/24 09:45:51;;;;;;;4.00;1.30;;;;;;;-128.00;-1.00;-1.00;105514;1251;1004819;-82
2023/08/24 09:48:18;;;;;;;3.00;1.70;;;;;;;-128.00;-1.00;-1.00;105523;1252;1047101;-81
2023/08/24 09:50:46;;;;;;;6.00;2.30;;;;;;;-128.00;-1.00;-1.00;105573;1253;1003696;-83
2023/08/24 09:53:33;;;;;;;6.10;2.00;;;;;;;-128.00;-1.00;-1.00;105540;1253;1003748;-82
2023/08/24 09:56:00;;;;;;;;;;;;;;;-128.00;-1.00;-1.00;105375;1252;1060142;-82
2023/08/24 09:58:27;;;;;;;3.50;1.70;;;;;;;-128.00;-1.00;-1.00;105556;1251;1004440;-82
2023/08/24 10:00:54;;;;;;;5.90;1.80;;;;;;;-128.00;-1.00;-1.00;105530;1251;1003974;-82
2023/08/24 10:03:24;;;;;;;4.40;2.00;;;;;;;-128.00;-1.00;-1.00;105496;1251;1003885;-82
2023/08/24 10:06:00;;;;;;;4.50;1.80;;;;;;;-128.00;-1.00;-1.00;105454;1252;1059344;-81
2023/08/24 10:08:28;;;;;;;5.20;2.50;;;;;;;-128.00;-1.00;-1.00;105448;1251;1059836;-82
2023/08/24 10:10:58;;;;;;;3.30;1.90;;;;;;;-128.00;-1.00;-1.00;105326;1253;1044286;-82
2023/08/24 10:13:40;;;;;;;4.00;1.70;;;;;;;-128.00;-1.00;-1.00;105524;1252;1046036;-81
2023/08/24 10:16:07;;;;;;;3.10;1.90;;;;;;;-128.00;-1.00;-1.00;105511;1251;1061436;-81
2023/08/24 10:18:34;;;;;;;5.50;2.10;;;;;;;-128.00;-1.00;-1.00;105540;1253;1003711;-81
2023/08/24 10:21:00;;;;;;;3.40;2.20;;;;;;;-128.00;-1.00;-1.00;105371;1253;1003732;-81
2023/08/24 10:23:28;;;;;;;4.60;2.20;;;;;;;-128.00;-1.00;-1.00;105518;1251;1004955;-81
2023/08/24 10:25:54;;;;;;;7.20;2.00;;;;;;;-128.00;-1.00;-1.00;105363;1251;1004712;-81
2023/08/24 10:28:23;;;;;;;5.80;2.40;;;;;;;-128.00;-1.00;-1.00;105292;1253;1004136;-81
2023/08/24 10:30:49;;;;;;;6.20;2.10;;;;;;;-128.00;-1.00;-1.00;105334;1251;1057987;-81
2023/08/24 10:33:16;;;;;;;5.60;2.60;;;;;;;-128.00;-1.00;-1.00;105394;1251;1004031;-81
2023/08/24 10:35:43;;;;;;;3.70;2.50;;;;;;;-128.00;-1.00;-1.00;105523;1252;1003667;-81
2023/08/24 10:38:28;;;;;;;6.10;2.00;;;;;;;-128.00;-1.00;-1.00;105544;1251;1004054;-81
2023/08/24 10:40:55;;;;;;;5.30;2.60;;;;;;;-128.00;-1.00;-1.00;105490;1251;1060604;-81
2023/08/24 10:43:24;;;;;;;5.00;3.10;;;;;;;-128.00;-1.00;-1.00;105474;1251;1004798;-81
2023/08/24 10:45:57;;;;;;;3.50;2.40;;;;;;;-128.00;-1.00;-1.00;105419;1254;1059853;-81
2023/08/24 10:48:24;;;;;;;4.00;2.40;;;;;;;-128.00;-1.00;-1.00;105457;1252;1045312;-81
2023/08/24 10:51:13;;;;;;;7.30;2.80;;;;;;;-128.00;-1.00;-1.00;105357;1254;1004975;-81
2023/08/24 10:53:46;;;;;;;4.40;2.80;;;;;;;-128.00;-1.00;-1.00;105474;1253;1060691;-81
2023/08/24 10:56:13;;;;;;;5.40;2.80;;;;;;;-128.00;-1.00;-1.00;105465;1252;1059493;-81
2023/08/24 10:58:40;;;;;;;5.30;3.30;;;;;;;-128.00;-1.00;-1.00;105510;1252;1004479;-81
2023/08/24 11:01:07;;;;;;;5.10;3.00;;;;;;;-128.00;-1.00;-1.00;105500;1252;1004732;-81
2023/08/24 11:03:33;;;;;;;7.00;3.00;;;;;;;-128.00;-1.00;-1.00;105439;1253;1004750;-81
2023/08/24 11:06:00;;;;;;;5.00;2.70;;;;;;;-128.00;-1.00;-1.00;105532;1251;1003856;-81
2023/08/24 11:08:46;;;;;;;4.50;3.00;;;;;;;-128.00;-1.00;-1.00;105454;1253;1003694;-81